Time;durP1;ratioP1;P1;durP2;ratioP2;P2;SDS_P1;SDS_P2;PMS_P1;PMS_P2;Temp;Humidity;BMP_temperature;BMP_pressure;BME280_temperature;BME280_humidity;BME280_pressure;Samples;Min_cycle;Max_cycle;Signal;HPM_P1;HPM_P2
2022/07/18 00:01:03;;;;;;;6.60;4.10;;;;;;;16.16;100.00;99444.00;5050102;28;20546;-41
2022/07/18 00:03:28;;;;;;;6.95;4.35;;;;;;;16.16;100.00;99448.38;5051358;28;20072;-41
2022/07/18 00:05:54;;;;;;;5.78;3.95;;;;;;;16.15;100.00;99442.28;5050106;28;20052;-42
2022/07/18 00:08:20;;;;;;;6.53;4.10;;;;;;;16.16;100.00;99436.13;5047397;28;20041;-41
2022/07/18 00:10:46;;;;;;;6.53;4.35;;;;;;;16.17;100.00;99442.22;5042197;28;20045;-40
2022/07/18 00:13:12;;;;;;;4.85;4.07;;;;;;;16.18;100.00;99433.38;5051677;28;20036;-42
2022/07/18 00:15:38;;;;;;;7.15;4.20;;;;;;;16.10;100.00;99431.25;5051019;28;20052;-41
2022/07/18 00:18:04;;;;;;;5.80;4.47;;;;;;;16.21;100.00;99433.22;5052268;28;20086;-41
2022/07/18 00:20:30;;;;;;;7.63;4.05;;;;;;;16.21;100.00;99438.47;5051961;28;20516;-43
2022/07/18 00:22:55;;;;;;;5.50;3.83;;;;;;;16.14;100.00;99424.03;5050399;28;20075;-42
2022/07/18 00:25:22;;;;;;;5.85;3.60;;;;;;;16.22;100.00;99437.53;5049689;28;20578;-41
2022/07/18 00:27:48;;;;;;;5.88;4.10;;;;;;;16.23;100.00;99429.53;5034371;28;20427;-42
2022/07/18 00:30:14;;;;;;;4.90;3.88;;;;;;;16.23;100.00;99426.91;5034160;28;20041;-41
2022/07/18 00:32:40;;;;;;;6.30;4.13;;;;;;;16.25;100.00;99424.22;5035968;28;20044;-41
2022/07/18 00:35:06;;;;;;;5.82;3.85;;;;;;;16.24;100.00;99428.59;5033064;28;20045;-41
2022/07/18 00:37:32;;;;;;;8.10;4.22;;;;;;;16.24;100.00;99420.75;5048223;28;20432;-42
2022/07/18 00:39:58;;;;;;;5.82;3.90;;;;;;;16.24;100.00;99426.00;5050934;28;20041;-42
2022/07/18 00:42:24;;;;;;;6.22;3.85;;;;;;;16.15;100.00;99407.34;5051171;28;20147;-41
2022/07/18 00:44:56;;;;;;;7.30;3.83;;;;;;;16.17;100.00;99406.34;5051585;28;20076;-42
2022/07/18 00:47:22;;;;;;;8.10;4.25;;;;;;;16.26;100.00;99424.13;5051402;28;20144;-41
2022/07/18 00:49:48;;;;;;;6.43;4.18;;;;;;;16.22;100.00;99409.53;5033310;28;20464;-41
2022/07/18 00:52:14;;;;;;;4.55;3.60;;;;;;;16.29;100.00;99425.69;5051214;28;20147;-40
2022/07/18 00:54:40;;;;;;;6.82;4.22;;;;;;;16.29;100.00;99428.31;5051282;28;20103;-41
2022/07/18 00:57:06;;;;;;;5.93;4.40;;;;;;;16.26;100.00;99418.03;5050472;28;20074;-40
2022/07/18 01:02:17;;;;;;;5.82;3.67;;;;;;;16.27;100.00;99432.84;5050477;28;20047;-41
2022/07/18 01:04:43;;;;;;;6.43;4.20;;;;;;;16.26;100.00;99426.75;5051016;28;20044;-41
2022/07/18 01:07:09;;;;;;;4.63;3.75;;;;;;;16.12;100.00;99407.56;5049358;28;20048;-41
2022/07/18 01:09:35;;;;;;;6.65;4.30;;;;;;;16.14;100.00;99405.66;5048069;28;20416;-41
2022/07/18 01:12:02;;;;;;;6.10;3.95;;;;;;;16.13;100.00;99398.72;5051053;28;20192;-42
2022/07/18 01:14:28;;;;;;;5.70;3.60;;;;;;;16.26;100.00;99425.91;5050132;28;20113;-41
2022/07/18 01:16:55;;;;;;;8.00;3.67;;;;;;;16.23;100.00;99418.22;5043935;28;20460;-44
2022/07/18 01:19:21;;;;;;;5.45;3.67;;;;;;;16.25;100.00;99427.69;5040863;28;20045;-42
2022/07/18 01:21:46;;;;;;;4.82;3.80;;;;;;;16.23;100.00;99416.44;5041978;28;20091;-42
2022/07/18 01:24:12;;;;;;;5.00;3.88;;;;;;;16.26;100.00;99413.63;5042587;28;20045;-41
2022/07/18 01:26:38;;;;;;;4.53;3.55;;;;;;;16.23;100.00;99411.19;5051017;28;20041;-41
2022/07/18 01:29:04;;;;;;;5.75;4.03;;;;;;;16.27;100.00;99406.59;5028074;28;20047;-42
2022/07/18 01:31:33;;;;;;;6.75;3.95;;;;;;;16.26;100.00;99408.38;5044313;28;20033;-41
2022/07/18 01:34:00;;;;;;;5.43;3.70;;;;;;;16.26;100.00;99407.53;5050414;28;20051;-41
2022/07/18 01:36:25;;;;;;;4.28;3.35;;;;;;;16.26;100.00;99411.00;5046770;28;20127;-41
2022/07/18 01:38:51;;;;;;;4.45;3.78;;;;;;;16.26;100.00;99413.63;5036379;28;20174;-41
2022/07/18 01:41:17;;;;;;;6.65;3.55;;;;;;;16.22;100.00;99401.66;5049662;28;20084;-41
2022/07/18 01:43:43;;;;;;;4.63;3.60;;;;;;;16.29;100.00;99407.34;5047744;28;20500;-41
2022/07/18 01:46:10;;;;;;;4.85;3.58;;;;;;;16.30;100.00;99402.00;5029478;28;20501;-41
2022/07/18 01:48:40;;;;;;;5.45;3.38;;;;;;;16.34;100.00;99403.50;5012853;28;20491;-41
2022/07/18 01:51:09;;;;;;;4.25;3.30;;;;;;;16.34;100.00;99400.88;5047298;28;20034;-42
2022/07/18 01:53:39;;;;;;;4.78;3.25;;;;;;;16.36;100.00;99399.00;5048796;28;20041;-41
2022/07/18 01:56:06;;;;;;;5.70;3.35;;;;;;;16.39;100.00;99405.81;5050622;28;20040;-42
2022/07/18 01:58:32;;;;;;;6.22;2.95;;;;;;;16.25;100.00;99388.34;5049792;28;20063;-42
2022/07/18 02:00:58;;;;;;;4.93;3.40;;;;;;;16.33;100.00;99388.69;5050351;28;20378;-41
2022/07/18 02:03:23;;;;;;;6.57;3.92;;;;;;;16.44;100.00;99404.59;5046957;28;20051;-40
2022/07/18 02:05:49;;;;;;;4.72;3.20;;;;;;;16.49;100.00;99405.16;5050508;28;20041;-41
2022/07/18 02:08:15;;;;;;;5.43;4.05;;;;;;;16.51;100.00;99402.44;5044842;28;20423;-40
2022/07/18 02:10:41;;;;;;;6.15;3.72;;;;;;;16.53;100.00;99403.19;5042131;28;20444;-40
2022/07/18 02:13:06;;;;;;;3.65;3.13;;;;;;;16.56;100.00;99404.78;5048863;28;20416;-41
2022/07/18 02:15:32;;;;;;;6.10;3.65;;;;;;;16.58;100.00;99400.28;5050328;28;20485;-41
2022/07/18 02:17:58;;;;;;;4.88;3.08;;;;;;;16.59;100.00;99404.63;5046625;28;20140;-41
2022/07/18 02:20:24;;;;;;;5.00;3.20;;;;;;;16.59;100.00;99408.06;5049286;28;20525;-40
2022/07/18 02:22:50;;;;;;;5.97;3.78;;;;;;;16.62;99.95;99400.00;5048210;28;20106;-42
2022/07/18 02:25:16;;;;;;;5.43;3.00;;;;;;;16.62;99.36;99400.00;5046165;28;20072;-40
2022/07/18 02:27:42;;;;;;;7.75;3.25;;;;;;;16.62;99.51;99401.78;5032063;28;20044;-41
2022/07/18 02:30:09;;;;;;;3.88;2.97;;;;;;;16.64;99.44;99410.44;5049689;28;20488;-42
2022/07/18 02:32:37;;;;;;;6.32;3.15;;;;;;;16.65;98.74;99412.09;5044628;28;20040;-41
2022/07/18 02:35:07;;;;;;;4.05;2.70;;;;;;;16.55;98.18;99393.44;5032355;28;20047;-41
2022/07/18 02:37:33;;;;;;;2.78;2.00;;;;;;;16.64;97.32;99402.56;5048604;28;20527;-41
2022/07/18 02:39:59;;;;;;;4.72;2.45;;;;;;;16.58;96.54;99390.63;5049131;28;20051;-41
2022/07/18 02:42:25;;;;;;;4.68;2.67;;;;;;;16.70;96.10;99412.63;5040058;28;20049;-41
2022/07/18 02:44:51;;;;;;;3.88;2.55;;;;;;;16.72;95.72;99405.53;5038769;28;20471;-41
2022/07/18 02:47:17;;;;;;;4.38;2.47;;;;;;;16.74;95.72;99411.53;5049421;28;20103;-47
2022/07/18 02:49:42;;;;;;;2.58;2.25;;;;;;;16.68;95.38;99385.66;5048159;28;20032;-40
2022/07/18 02:52:08;;;;;;;4.03;2.22;;;;;;;16.78;94.61;99400.72;5046348;28;20132;-42
2022/07/18 02:54:36;;;;;;;3.08;2.47;;;;;;;16.78;94.37;99395.47;5049163;28;20041;-41
2022/07/18 02:57:02;;;;;;;4.43;2.45;;;;;;;16.74;94.17;99380.88;5064595;28;20132;-41
2022/07/18 02:59:28;;;;;;;2.78;2.22;;;;;;;16.84;94.09;99394.25;5048749;28;20045;-40
2022/07/18 03:01:54;;;;;;;6.00;2.60;;;;;;;16.85;93.52;99393.31;5046844;28;20604;-42
2022/07/18 03:04:20;;;;;;;2.72;2.00;;;;;;;16.87;92.68;99391.41;5048029;28;20045;-41
2022/07/18 03:06:47;;;;;;;4.63;2.25;;;;;;;16.90;91.76;99402.53;5049082;28;20483;-41
2022/07/18 03:09:14;;;;;;;2.78;2.10;;;;;;;16.96;91.29;99403.94;5033018;28;20048;-41
2022/07/18 03:11:40;;;;;;;4.45;2.00;;;;;;;17.03;90.61;99399.13;5048567;28;20053;-41
2022/07/18 03:14:07;;;;;;;5.22;2.38;;;;;;;17.10;89.71;99398.63;5047474;28;20090;-43
2022/07/18 03:16:33;;;;;;;3.85;2.30;;;;;;;17.07;89.60;99390.94;5049257;28;20044;-42
2022/07/18 03:18:59;;;;;;;5.00;2.50;;;;;;;17.20;89.66;99404.97;5047790;28;20041;-41
2022/07/18 03:21:25;;;;;;;6.18;2.38;;;;;;;17.26;89.32;99401.09;5049410;28;20044;-41
2022/07/18 03:23:51;;;;;;;4.20;1.90;;;;;;;17.21;88.93;99392.69;5034511;28;20136;-41
2022/07/18 03:26:17;;;;;;;2.65;2.00;;;;;;;17.35;88.91;99405.72;5049004;28;20128;-42
2022/07/18 03:28:44;;;;;;;4.68;1.88;;;;;;;17.34;88.63;99389.13;5048690;28;20512;-41
2022/07/18 03:31:11;;;;;;;2.22;1.77;;;;;;;17.38;87.55;99394.19;5048057;28;20056;-41
2022/07/18 03:33:39;;;;;;;4.32;1.92;;;;;;;17.46;86.93;99402.41;5032340;28;20044;-41
2022/07/18 03:36:05;;;;;;;3.80;2.60;;;;;;;17.53;86.69;99407.16;5028694;28;20049;-41
2022/07/18 03:38:31;;;;;;;3.78;2.10;;;;;;;17.59;86.56;99401.50;5046061;28;20106;-40
2022/07/18 03:40:57;;;;;;;3.58;2.00;;;;;;;17.64;86.48;99404.66;5048965;28;20253;-42
2022/07/18 03:43:23;;;;;;;2.10;1.80;;;;;;;17.71;86.20;99405.06;5030488;28;20448;-42
2022/07/18 03:45:49;;;;;;;3.80;2.17;;;;;;;17.78;85.91;99406.34;5047783;28;20060;-42
2022/07/18 03:48:14;;;;;;;4.05;2.13;;;;;;;17.74;85.26;99389.13;5049054;28;20127;-41
2022/07/18 03:50:40;;;;;;;3.42;2.28;;;;;;;17.78;84.76;99391.44;5047752;28;20044;-42
2022/07/18 03:53:06;;;;;;;3.83;2.05;;;;;;;17.90;84.45;99404.69;5035992;28;20529;-41
2022/07/18 03:55:32;;;;;;;2.35;1.90;;;;;;;17.88;84.09;99396.88;5046203;28;20048;-42
2022/07/18 03:57:58;;;;;;;6.05;2.50;;;;;;;17.95;83.77;99397.31;5048536;28;20061;-43
2022/07/18 04:00:25;;;;;;;4.35;2.55;;;;;;;17.97;82.58;99405.94;5048847;28;20138;-45
2022/07/18 04:02:52;;;;;;;2.60;1.80;;;;;;;18.02;82.56;99404.66;5025694;28;20557;-42
2022/07/18 04:05:18;;;;;;;3.22;2.10;;;;;;;18.08;81.95;99403.41;5029245;28;20137;-40
2022/07/18 04:07:44;;;;;;;4.35;2.10;;;;;;;18.09;81.53;99392.78;5029115;28;20049;-41
2022/07/18 04:10:11;;;;;;;5.88;2.97;;;;;;;18.14;80.97;99392.44;5027635;28;20046;-41
2022/07/18 04:12:54;;;;;;;8.30;2.95;;;;;;;18.16;80.29;99382.66;5048532;28;20132;-41
2022/07/18 04:15:22;;;;;;;7.00;2.55;;;;;;;18.29;79.69;99401.91;5047608;28;20045;-42
2022/07/18 04:17:48;;;;;;;6.47;2.50;;;;;;;18.37;79.16;99406.63;5049359;28;20086;-41
2022/07/18 04:20:16;;;;;;;5.45;2.78;;;;;;;18.42;78.06;99407.16;5034547;28;20306;-41
2022/07/18 04:22:48;;;;;;;5.50;2.58;;;;;;;18.47;77.09;99415.56;5040272;28;20501;-42
2022/07/18 04:25:15;;;;;;;4.32;2.53;;;;;;;18.51;76.96;99407.34;5032309;28;20038;-42
2022/07/18 04:27:40;;;;;;;5.10;2.40;;;;;;;18.57;77.01;99412.19;5030997;28;20505;-42
2022/07/18 04:30:07;;;;;;;6.25;2.50;;;;;;;18.63;76.87;99407.44;5040363;28;20039;-41
2022/07/18 04:32:33;;;;;;;7.05;2.88;;;;;;;18.69;76.47;99404.34;5044666;28;20041;-41
2022/07/18 04:34:59;;;;;;;5.28;2.80;;;;;;;18.73;76.11;99406.66;5032522;28;20132;-42
2022/07/18 04:37:31;;;;;;;4.63;2.33;;;;;;;18.77;75.78;99404.66;5035125;28;20045;-41
2022/07/18 04:40:09;;;;;;;5.45;2.50;;;;;;;18.80;75.05;99397.34;5014846;28;20049;-41
2022/07/18 04:42:37;;;;;;;5.22;2.80;;;;;;;18.83;75.12;99405.06;5022540;28;20123;-41
2022/07/18 04:45:05;;;;;;;3.30;2.22;;;;;;;18.86;75.52;99402.19;5040538;28;20068;-42
2022/07/18 04:47:32;;;;;;;6.25;2.67;;;;;;;18.85;75.40;99397.00;5038118;28;20055;-42
2022/07/18 04:50:07;;;;;;;5.15;2.30;;;;;;;19.01;75.32;99403.69;5050472;28;20516;-40
2022/07/18 04:52:39;;;;;;;4.82;2.63;;;;;;;19.12;74.50;99402.06;5030027;28;20081;-41
2022/07/18 04:55:07;;;;;;;5.07;2.40;;;;;;;19.23;73.90;99389.78;5044339;28;20060;-40
2022/07/18 04:57:35;;;;;;;4.95;2.40;;;;;;;19.26;72.84;99378.19;5030100;28;20149;-42
2022/07/18 05:00:08;;;;;;;5.47;2.45;;;;;;;19.42;71.98;99389.22;5038578;28;20080;-41
2022/07/18 05:05:26;;;;;;;6.60;2.80;;;;;;;19.51;71.95;99385.94;5017417;28;20141;-41
2022/07/18 05:07:53;;;;;;;4.75;2.90;;;;;;;19.50;72.24;99383.41;5042225;28;20045;-42
2022/07/18 05:10:21;;;;;;;5.75;2.72;;;;;;;19.57;72.02;99388.13;5044224;28;20075;-43
2022/07/18 05:13:02;;;;;;;;;;;;;;;;;;;;;
2022/07/18 05:16:05;;;;;;;4.53;2.60;;;;;;;19.65;69.84;99401.56;5038549;28;20566;-41
2022/07/18 05:18:31;;;;;;;5.30;2.60;;;;;;;19.68;68.54;99411.84;5030603;28;20044;-41
2022/07/18 05:21:01;;;;;;;6.07;2.70;;;;;;;19.67;67.63;99404.94;4998796;28;20533;-41
2022/07/18 05:23:27;;;;;;;7.25;2.70;;;;;;;19.64;67.45;99409.56;5014852;28;20047;-41
2022/07/18 05:25:53;;;;;;;9.90;3.30;;;;;;;19.62;67.20;99408.88;5050753;28;20125;-41
2022/07/18 05:28:19;;;;;;;7.90;2.75;;;;;;;19.64;67.60;99412.22;5050054;28;20127;-43
2022/07/18 05:30:45;;;;;;;5.05;2.67;;;;;;;19.65;67.89;99406.00;5049633;28;20481;-42
2022/07/18 05:33:11;;;;;;;7.18;2.78;;;;;;;19.61;68.05;99408.03;5040967;28;20123;-44
2022/07/18 05:35:36;;;;;;;8.68;3.25;;;;;;;19.52;68.56;99403.47;5031340;28;20044;-42
2022/07/18 05:38:02;;;;;;;11.25;3.15;;;;;;;19.47;68.99;99402.13;5041507;28;20523;-41
2022/07/18 05:40:28;;;;;;;6.88;3.17;;;;;;;19.53;69.34;99404.28;5041895;28;20509;-40
2022/07/18 05:42:54;;;;;;;8.95;3.63;;;;;;;19.53;69.75;99407.75;5050808;28;20044;-40
2022/07/18 05:45:21;;;;;;;13.48;3.30;;;;;;;19.53;69.77;99405.13;5032599;28;20394;-41
2022/07/18 05:47:46;;;;;;;9.90;3.08;;;;;;;19.57;69.54;99396.03;5048447;28;20139;-41
2022/07/18 05:50:12;;;;;;;8.05;3.30;;;;;;;19.80;69.16;99403.03;5029146;28;20256;-41
2022/07/18 05:52:38;;;;;;;9.27;3.22;;;;;;;19.94;68.81;99394.03;5037480;28;20049;-42
2022/07/18 05:55:05;;;;;;;6.43;3.10;;;;;;;20.11;68.80;99396.22;5050761;28;20041;-40
2022/07/18 05:57:31;;;;;;;6.55;3.00;;;;;;;20.31;68.12;99392.03;5028888;28;20545;-41
2022/07/18 05:59:57;;;;;;;7.93;3.20;;;;;;;20.56;67.58;99399.72;5055901;28;20493;-40
2022/07/18 06:02:22;;;;;;;9.00;3.05;;;;;;;20.81;66.65;99385.34;5048738;28;20048;-41
2022/07/18 06:04:48;;;;;;;6.90;3.00;;;;;;;21.04;65.35;99379.00;5059762;28;20518;-41
2022/07/18 06:07:14;;;;;;;7.50;2.97;;;;;;;21.32;64.48;99380.25;5063918;28;20051;-41
2022/07/18 06:09:40;;;;;;;10.32;3.20;;;;;;;21.56;63.70;99378.19;5039468;28;20043;-41
2022/07/18 06:12:06;;;;;;;4.90;2.83;;;;;;;21.69;61.39;99371.88;5048619;28;20036;-41
2022/07/18 06:14:32;;;;;;;10.90;3.90;;;;;;;21.93;60.03;99373.25;5027813;28;20040;-40
2022/07/18 06:17:00;;;;;;;5.85;3.20;;;;;;;22.16;57.99;99371.28;5049212;28;20044;-41
2022/07/18 06:19:26;;;;;;;9.43;3.70;;;;;;;22.36;56.92;99370.38;5049591;28;20047;-41
2022/07/18 06:21:51;;;;;;;9.80;3.22;;;;;;;22.57;56.25;99372.94;5048363;28;20468;-42
2022/07/18 06:24:17;;;;;;;5.97;2.53;;;;;;;22.79;55.98;99366.59;5030396;28;20033;-41
2022/07/18 06:26:43;;;;;;;6.93;2.70;;;;;;;22.94;54.10;99364.38;5047056;28;20059;-44
2022/07/18 06:29:10;;;;;;;5.72;2.25;;;;;;;22.99;52.99;99357.69;5048756;28;20366;-44
2022/07/18 06:31:36;;;;;;;3.95;2.58;;;;;;;23.07;52.68;99363.16;5046839;28;20051;-42
2022/07/18 06:34:03;;;;;;;4.85;2.75;;;;;;;23.08;52.19;99359.50;5047612;28;20041;-42
2022/07/18 06:36:29;;;;;;;7.90;2.45;;;;;;;23.08;51.98;99343.59;5041890;28;20052;-44
2022/07/18 06:38:55;;;;;;;6.18;2.50;;;;;;;23.23;51.92;99363.44;5049637;28;20041;-42
2022/07/18 06:41:21;;;;;;;4.72;2.35;;;;;;;23.29;50.99;99353.22;5045647;28;20135;-42
2022/07/18 06:43:46;;;;;;;5.07;2.85;;;;;;;23.29;50.96;99358.53;5031189;28;20043;-44
2022/07/18 06:46:12;;;;;;;6.38;3.17;;;;;;;23.32;50.30;99360.91;5048578;28;20047;-42
2022/07/18 06:48:38;;;;;;;4.80;1.98;;;;;;;23.42;49.96;99351.94;5047600;28;20033;-43
2022/07/18 06:51:05;;;;;;;4.25;2.03;;;;;;;23.56;49.96;99356.00;5047656;28;20136;-42
2022/07/18 06:53:32;;;;;;;5.90;2.30;;;;;;;23.52;50.45;99357.25;5044763;28;20044;-41
2022/07/18 06:55:57;;;;;;;7.13;2.50;;;;;;;23.44;50.07;99357.97;5047465;28;20044;-40
2022/07/18 06:58:24;;;;;;;3.33;1.98;;;;;;;23.32;49.18;99350.28;5047052;28;20152;-43
2022/07/18 07:00:51;;;;;;;3.53;2.45;;;;;;;23.40;48.69;99358.38;5049242;28;20056;-40
2022/07/18 07:03:17;;;;;;;4.85;1.92;;;;;;;23.28;48.35;99346.25;5046982;28;20033;-41
2022/07/18 07:05:43;;;;;;;4.97;1.92;;;;;;;23.21;48.21;99338.84;5040026;28;20056;-42
2022/07/18 07:08:08;;;;;;;8.30;2.20;;;;;;;23.28;48.50;99360.34;5045854;28;20040;-42
2022/07/18 07:10:35;;;;;;;6.15;2.10;;;;;;;23.34;48.43;99356.31;5031550;28;20047;-43
2022/07/18 07:13:00;;;;;;;9.60;2.40;;;;;;;23.44;48.14;99363.28;5045597;28;20102;-42
2022/07/18 07:15:27;;;;;;;5.18;3.20;;;;;;;23.59;47.67;99356.56;5022945;28;20049;-42
2022/07/18 07:17:53;;;;;;;4.00;1.65;;;;;;;23.86;47.30;99362.94;5046214;28;20040;-42
2022/07/18 07:20:20;;;;;;;3.85;2.15;;;;;;;24.11;47.21;99362.28;5041691;28;20127;-43
2022/07/18 07:22:52;;;;;;;3.33;1.87;;;;;;;24.31;46.75;99347.94;5050023;28;20538;-44
2022/07/18 07:25:20;;;;;;;3.90;2.05;;;;;;;24.49;46.35;99353.31;5045709;28;20041;-43
2022/07/18 07:27:46;;;;;;;4.85;2.03;;;;;;;24.51;45.74;99347.81;5043529;28;20047;-45
2022/07/18 07:30:13;;;;;;;7.07;2.10;;;;;;;24.51;45.33;99356.63;5006072;28;20046;-43
2022/07/18 07:32:42;;;;;;;6.13;2.40;;;;;;;24.42;45.43;99354.88;5041735;28;20480;-43
2022/07/18 07:35:12;;;;;;;8.85;2.33;;;;;;;24.40;45.74;99355.00;5040810;28;20040;-41
2022/07/18 07:37:42;;;;;;;9.35;4.38;;;;;;;24.38;45.92;99337.56;5044626;28;20115;-41
2022/07/18 07:40:09;;;;;;;11.40;4.93;;;;;;;24.44;46.38;99353.72;5047137;28;20601;-43
2022/07/18 07:42:36;;;;;;;7.15;3.47;;;;;;;24.43;46.32;99343.25;5043439;28;20068;-42
2022/07/18 07:45:03;;;;;;;5.05;2.22;;;;;;;24.53;45.76;99349.34;5045891;28;20084;-42
2022/07/18 07:47:29;;;;;;;8.02;2.38;;;;;;;24.44;45.26;99335.13;5048415;28;20131;-42
2022/07/18 07:49:56;;;;;;;4.50;2.60;;;;;;;24.41;44.99;99350.53;5050894;28;20119;-43
2022/07/18 07:52:23;;;;;;;6.85;2.70;;;;;;;24.14;44.99;99340.72;5048168;28;20043;-42
2022/07/18 07:54:50;;;;;;;4.50;2.30;;;;;;;23.93;45.58;99335.63;5044286;28;20044;-42
2022/07/18 07:57:16;;;;;;;3.85;2.35;;;;;;;23.95;45.34;99340.81;5035085;28;20084;-41
2022/07/18 07:59:42;;;;;;;4.47;2.63;;;;;;;23.99;44.53;99335.03;5030689;28;20079;-41
2022/07/18 08:02:08;;;;;;;7.75;3.30;;;;;;;24.30;44.37;99337.44;5045979;28;20068;-41
2022/07/18 08:04:34;;;;;;;12.45;3.30;;;;;;;24.67;44.02;99332.03;5052922;28;20109;-47
2022/07/18 08:07:00;;;;;;;5.60;3.40;;;;;;;25.11;43.28;99325.03;5045576;28;20041;-43
2022/07/18 08:09:26;;;;;;;9.52;4.57;;;;;;;25.61;42.74;99327.91;5057884;28;20091;-41
2022/07/18 08:11:52;;;;;;;6.38;3.78;;;;;;;26.12;41.21;99321.66;5039921;28;20128;-41
2022/07/18 08:14:18;;;;;;;6.97;3.35;;;;;;;28.70;36.40;99319.00;5040928;28;20547;-42
2022/07/18 08:16:43;;;;;;;4.78;3.20;;;;;;;31.07;32.31;99318.78;5045419;28;20049;-41
2022/07/18 08:19:10;;;;;;;5.07;3.08;;;;;;;31.83;30.91;99305.50;5031206;28;20580;-44
2022/07/18 08:21:36;;;;;;;3.78;2.35;;;;;;;33.59;28.83;99322.38;5040109;28;20037;-45
2022/07/18 08:24:02;;;;;;;6.72;3.90;;;;;;;35.19;26.63;99315.09;5045718;28;20049;-42
2022/07/18 08:26:27;;;;;;;6.25;3.33;;;;;;;35.56;25.86;99307.91;5047467;28;20037;-42
2022/07/18 08:28:53;;;;;;;4.32;2.95;;;;;;;35.95;25.39;99309.41;5046172;28;20045;-41
2022/07/18 08:31:19;;;;;;;5.10;2.60;;;;;;;35.80;24.73;99302.72;5034264;28;20041;-42
2022/07/18 08:33:45;;;;;;;6.03;2.95;;;;;;;36.14;24.45;99312.09;5046171;28;20033;-42
2022/07/18 08:36:11;;;;;;;5.20;2.95;;;;;;;35.66;24.31;99308.25;5047663;28;20041;-41
2022/07/18 08:38:37;;;;;;;6.28;4.00;;;;;;;35.06;25.15;99295.44;5040892;28;20064;-42
2022/07/18 08:41:03;;;;;;;22.35;9.20;;;;;;;33.94;27.19;99291.41;5040082;28;20526;-43
2022/07/18 08:43:29;;;;;;;3.60;2.38;;;;;;;32.99;27.93;99278.41;5053062;28;20524;-42
2022/07/18 08:45:58;;;;;;;5.40;3.40;;;;;;;32.64;27.71;99288.53;5049278;28;20040;-44
2022/07/18 08:48:24;;;;;;;4.50;3.05;;;;;;;32.32;28.35;99290.06;5033846;28;20040;-41
2022/07/18 08:50:50;;;;;;;5.10;2.60;;;;;;;32.11;28.45;99271.34;5049433;28;20037;-42
2022/07/18 08:53:17;;;;;;;4.82;2.78;;;;;;;32.10;28.57;99283.09;5045249;28;20040;-42
2022/07/18 08:56:02;;;;;;;2.80;1.85;;;;;;;32.18;28.51;99282.97;5042098;28;20484;-42
2022/07/18 08:58:29;;;;;;;4.22;2.17;;;;;;;31.95;28.89;99268.97;5047352;28;20061;-41
2022/07/18 09:00:54;;;;;;;5.10;3.08;;;;;;;31.73;29.40;99286.22;5048292;28;20036;-42
2022/07/18 09:03:20;;;;;;;5.03;2.28;;;;;;;31.44;29.91;99282.72;5043770;28;20158;-41
2022/07/18 09:05:46;;;;;;;9.65;3.40;;;;;;;31.60;29.95;99270.88;5048517;28;20508;-41
2022/07/18 09:08:16;;;;;;;7.93;3.50;;;;;;;31.61;30.28;99288.66;5040195;28;20071;-43
2022/07/18 09:10:57;;;;;;;3.90;1.60;;;;;;;31.26;28.97;99278.84;5042710;28;20044;-41
2022/07/18 09:13:25;;;;;;;4.15;1.50;;;;;;;30.57;28.94;99274.06;5044790;28;20516;-42
2022/07/18 09:16:10;;;;;;;3.72;1.40;;;;;;;30.10;30.15;99271.84;5043530;28;20099;-41
2022/07/18 09:18:38;;;;;;;3.20;1.92;;;;;;;29.64;30.63;99263.16;5059980;28;20033;-42
2022/07/18 09:21:18;;;;;;;4.00;1.65;;;;;;;29.16;31.44;99272.50;5031751;28;20080;-42
2022/07/18 09:23:49;;;;;;;7.78;4.70;;;;;;;28.62;32.59;99258.38;5048309;28;20040;-41
2022/07/18 09:26:38;;;;;;;6.40;2.70;;;;;;;28.28;33.19;99257.91;5040553;28;20045;-41
2022/07/18 09:29:04;;;;;;;4.15;3.20;;;;;;;28.12;33.83;99264.19;5039380;28;20051;-42
2022/07/18 09:31:30;;;;;;;7.55;4.60;;;;;;;27.97;33.95;99261.38;5031145;28;20147;-41
2022/07/18 09:33:59;;;;;;;4.60;1.92;;;;;;;27.74;34.36;99266.63;5040966;28;20048;-41
2022/07/18 09:36:26;;;;;;;5.32;3.10;;;;;;;27.53;35.19;99258.34;5061925;28;20132;-41
2022/07/18 09:38:52;;;;;;;3.58;1.42;;;;;;;27.40;35.38;99263.38;5030465;28;20037;-41
2022/07/18 09:41:31;;;;;;;2.35;1.25;;;;;;;27.31;35.78;99253.72;5047097;28;20043;-41
2022/07/18 09:43:57;;;;;;;6.40;3.60;;;;;;;27.18;36.18;99253.38;5043684;28;20048;-41
2022/07/18 09:46:23;;;;;;;2.70;1.23;;;;;;;27.02;36.31;99250.72;5043933;28;20037;-40
2022/07/18 09:49:08;;;;;;;11.23;6.35;;;;;;;26.96;36.30;99253.06;5040398;28;20041;-41
2022/07/18 09:51:34;;;;;;;4.47;2.55;;;;;;;26.99;36.12;99238.56;5027011;28;20055;-42
2022/07/18 09:54:01;;;;;;;21.70;13.65;;;;;;;27.19;35.89;99247.88;5038164;28;20121;-43
2022/07/18 09:56:27;;;;;;;2.38;1.25;;;;;;;27.39;35.19;99241.16;5033560;28;20045;-41
2022/07/18 09:58:55;;;;;;;7.50;4.32;;;;;;;27.86;34.41;99245.72;5045550;28;20072;-41
2022/07/18 10:01:21;;;;;;;2.50;1.55;;;;;;;28.30;33.11;99223.81;5044433;28;20045;-42
2022/07/18 10:03:48;;;;;;;4.82;3.40;;;;;;;28.39;33.52;99234.28;5046911;28;20072;-42
2022/07/18 10:06:15;;;;;;;3.33;1.50;;;;;;;28.14;33.67;99233.59;5045549;28;20424;-41
2022/07/18 10:08:41;;;;;;;3.67;1.88;;;;;;;27.95;33.79;99227.84;5026426;28;20323;-42
2022/07/18 10:11:08;;;;;;;7.80;4.40;;;;;;;27.82;34.20;99228.38;5038406;28;20068;-41
2022/07/18 10:13:35;;;;;;;8.70;5.72;;;;;;;27.70;34.41;99227.09;5037177;28;20127;-41
2022/07/18 10:16:04;;;;;;;2.58;1.50;;;;;;;27.63;34.15;99226.97;5042480;28;20052;-42
2022/07/18 10:18:34;;;;;;;1.42;0.98;;;;;;;27.57;33.79;99233.00;5059567;28;20124;-42
2022/07/18 10:21:06;;;;;;;2.28;1.50;;;;;;;27.41;34.25;99230.34;5032912;28;20416;-41
2022/07/18 10:23:35;;;;;;;3.13;1.10;;;;;;;27.25;34.31;99219.69;5027064;28;20074;-42
2022/07/18 10:26:14;;;;;;;2.20;1.27;;;;;;;27.37;33.78;99227.16;5045941;28;20045;-41
2022/07/18 10:28:55;;;;;;;3.00;1.40;;;;;;;27.57;33.28;99226.81;5046253;28;20056;-41
2022/07/18 10:31:23;;;;;;;5.38;2.13;;;;;;;27.72;33.43;99225.09;5050711;28;20043;-41
2022/07/18 10:33:49;;;;;;;3.08;2.20;;;;;;;27.74;33.08;99210.53;5047142;28;20069;-42
2022/07/18 10:36:22;;;;;;;2.80;1.00;;;;;;;27.66;32.97;99215.09;5049778;28;20135;-44
2022/07/18 10:39:23;;;;;;;5.53;1.40;;;;;;;27.74;32.76;99215.06;5041594;28;20053;-42
2022/07/18 10:41:49;;;;;;;4.78;1.30;;;;;;;27.71;32.71;99208.22;5044881;28;20041;-41
2022/07/18 10:44:30;;;;;;;4.72;1.50;;;;;;;27.65;33.15;99206.22;5036591;28;20033;-41
2022/07/18 10:47:19;;;;;;;1.75;1.30;;;;;;;27.60;33.58;99205.09;5029857;28;20045;-41
2022/07/18 10:49:56;;;;;;;2.38;1.30;;;;;;;27.85;33.35;99198.63;5051043;28;20045;-41
2022/07/18 10:52:24;;;;;;;3.38;1.27;;;;;;;28.32;32.74;99195.88;5047252;28;20098;-43
2022/07/18 10:55:02;;;;;;;3.35;1.38;;;;;;;29.18;31.40;99192.00;5044494;28;20043;-42
2022/07/18 10:57:30;;;;;;;2.70;1.60;;;;;;;29.36;31.69;99192.50;5043577;28;20106;-42
2022/07/18 11:00:01;;;;;;;4.25;2.90;;;;;;;30.08;31.12;99193.44;5045758;28;20040;-42
2022/07/18 11:02:37;;;;;;;1.92;1.40;;;;;;;31.50;28.38;99184.34;5052882;28;20128;-42
2022/07/18 11:05:26;;;;;;;2.55;1.75;;;;;;;32.92;26.98;99199.50;5038969;28;20131;-42
2022/07/18 11:08:01;;;;;;;9.63;6.60;;;;;;;34.66;25.56;99197.59;5049446;28;20042;-41
2022/07/18 11:10:43;;;;;;;4.85;3.40;;;;;;;34.12;25.68;99193.59;5034722;28;20091;-42
2022/07/18 11:13:31;;;;;;;3.72;1.30;;;;;;;33.06;26.78;99193.03;5042684;28;20084;-42
2022/07/18 11:16:09;;;;;;;2.45;1.10;;;;;;;32.05;27.53;99190.59;5048641;28;20036;-41
2022/07/18 11:18:40;;;;;;;1.25;0.98;;;;;;;31.04;28.04;99184.88;5048616;28;20142;-41
2022/07/18 11:21:20;;;;;;;1.50;1.17;;;;;;;30.18;29.24;99179.72;5048161;28;20128;-42
2022/07/18 11:23:49;;;;;;;2.63;1.40;;;;;;;29.56;29.73;99174.03;5043376;28;20135;-42
2022/07/18 11:26:17;;;;;;;10.05;3.47;;;;;;;28.93;30.53;99160.13;5047091;28;20037;-42
2022/07/18 11:28:43;;;;;;;2.03;1.30;;;;;;;28.40;31.50;99182.47;5048339;28;20425;-41
2022/07/18 11:31:11;;;;;;;3.22;1.33;;;;;;;27.70;32.75;99181.66;5047468;28;20041;-41
2022/07/18 11:33:44;;;;;;;1.15;1.00;;;;;;;27.19;33.58;99177.66;5031347;28;20040;-41
2022/07/18 11:36:14;;;;;;;3.00;1.55;;;;;;;26.69;34.92;99183.22;5047103;28;20045;-42
2022/07/18 11:38:48;;;;;;;46.35;27.98;;;;;;;26.15;36.66;99180.97;5045730;28;20428;-41
2022/07/18 11:41:14;;;;;;;24.42;8.98;;;;;;;25.64;37.53;99175.84;5050549;28;20575;-39